Warning: Javascript must be enabled to use all the features on this page!


Page Loading - Please Wait...

Click to hideNews Bulletins

Peak Streamflow for the Nation

USGS 06477500 FIRESTEEL CR NEAR MOUNT VERNON,SD

Davison County, South Dakota
Hydrologic Unit Code 10160011
Latitude  43°46'35.1", Longitude  98°14'43.1" NAD27
Drainage area 588  square miles
Contributing drainage area 588  square miles
Gage datum 1,298.22 feet above NAVD88
Output formats
Table
Graph
Tab-separated file
peakfq (watstore) format
Reselect output format
Water
Year
Date Gage
Height
(feet)
Stream-
flow
(cfs)
1956 1956-08-06 4.60 174
1957 1957-07-08 6.60 539
1958 1958-03-27 5.66 416
1959 1959-03-02 2.901 1.10
1960 1960-03-28 15.13 5,780
1961 1961-06-16 4.76 225
1962 1962-06-17 13.252 3,800
1963 1963-03-27 2.94 29.0
1964 1964-05-07 4.22 145
1965 1965-06-06 2.55 10.0
1966 1966-03-13 8.782 1,150
1967 1967-06-20 9.00 1,190
1968 1968-07-30 4.58 166
1969 1969-04-04 15.342 6,610
1970 1970-04-22 5.602 320
1971 1971-03-17 9.072 900
1972 1972-05-15 8.70 1,100
1973 1973-03-01 8.502 700
1974 1974-06-12 5.32 204
1975 1975-04-08 2.86 2.50
1976 1976-05-23 2.78 2.00
1977 1977-03-14 8.861 900
1978 1978-03-21 11.61 2,280
1979 1979-03-07 3.861 10.0
1980 1980-06-27 2.95 1.00
1981 1981-08-04 3.46 16.0
1982 1982-02-27 7.601 350
1983 1983-04-19 5.06 172
1984 1984-06-21 15.56 5,080
1985 1985-03-16 13.411 3,700
1986 1986-05-10 14.48 4,560
1987 1987-03-28 11.96 2,330
1988 1988-05-26 6.27 306
1989 1989-03-14 6.881 3002
1990 1990-06-26 5.02 103
1991 1991-06-08 7.24 541
1992 1992-08-08 11.21 1,940
1993 1993-07-05 11.48 1,930
1994 1994-03-05 10.45 1,000
1995 1995-05-10 14.99 5,580
1996 1996-02-14 10.361 850
1997 1997-03-20 12.37 2,690
1998 1998-07-11 7.60 636
1999 1999-05-07 11.87 2,280
2000 2000-08-05 3.81 70.0
2001 2001-04-24 12.35 2,680
2002 2002-03-30 3.86 74.0
2003 2003-03-16 2.79 11.0
2004 2004-06-12 8.45 822
2005 2005-06-14 8.64 795
2006 2006-04-08 4.67 122
2007 2007-05-07 12.73 2,880
2008 2008-06-07 10.46 1,440
2009 2009-07-13 6.54 300
2010 2010-07-31 16.04 7,420
2011 2011-03-17 13.862 4,720
2012 2012-05-07 6.57 460
2013 2013-06-26 4.93 220
2014 2014-06-18 2.772 12.0
2015 2015-06-22 2.222 0.93
2016 2016-05-02 7.18 572
2017 2017-07-27 6.38 355
2018 2018-03-19 11.081 2,2602
2019 2019-03-22 14.552 4,970
2020 2020-06-11 10.622 1,670
?
  Peak Gage-Height Qualification Codes.
?
  Peak Streamflow Qualification Codes.